sensor_id;sensor_type;location;lat;lon;timestamp;P1;durP1;ratioP1;P2;durP2;ratioP2
39994;SDS011;25686;51.908;10.418;2023-08-24T00:00:50;8.32;;;5.88;;
39994;SDS011;25686;51.908;10.418;2023-08-24T00:02:52;6.20;;;5.63;;
39994;SDS011;25686;51.908;10.418;2023-08-24T00:04:52;7.40;;;5.68;;
39994;SDS011;25686;51.908;10.418;2023-08-24T00:06:54;7.70;;;5.82;;
39994;SDS011;25686;51.908;10.418;2023-08-24T00:08:55;6.45;;;5.90;;
39994;SDS011;25686;51.908;10.418;2023-08-24T00:10:56;9.50;;;6.25;;
39994;SDS011;25686;51.908;10.418;2023-08-24T00:12:57;7.57;;;6.38;;
39994;SDS011;25686;51.908;10.418;2023-08-24T00:14:58;6.90;;;6.05;;
39994;SDS011;25686;51.908;10.418;2023-08-24T00:16:59;8.98;;;6.57;;
39994;SDS011;25686;51.908;10.418;2023-08-24T00:19:00;6.95;;;6.20;;
39994;SDS011;25686;51.908;10.418;2023-08-24T00:21:01;8.75;;;6.07;;
39994;SDS011;25686;51.908;10.418;2023-08-24T00:23:02;6.80;;;5.90;;
39994;SDS011;25686;51.908;10.418;2023-08-24T00:25:04;7.07;;;6.15;;
39994;SDS011;25686;51.908;10.418;2023-08-24T00:27:05;9.13;;;6.65;;
39994;SDS011;25686;51.908;10.418;2023-08-24T00:29:06;6.88;;;6.00;;
39994;SDS011;25686;51.908;10.418;2023-08-24T00:31:07;8.68;;;6.18;;
39994;SDS011;25686;51.908;10.418;2023-08-24T00:33:08;7.20;;;6.07;;
39994;SDS011;25686;51.908;10.418;2023-08-24T00:35:09;6.80;;;6.03;;
39994;SDS011;25686;51.908;10.418;2023-08-24T00:37:10;7.72;;;6.47;;
39994;SDS011;25686;51.908;10.418;2023-08-24T00:39:12;9.45;;;6.72;;
39994;SDS011;25686;51.908;10.418;2023-08-24T00:41:13;8.77;;;6.43;;
39994;SDS011;25686;51.908;10.418;2023-08-24T00:43:14;7.15;;;6.45;;
39994;SDS011;25686;51.908;10.418;2023-08-24T00:45:15;8.65;;;7.05;;
39994;SDS011;25686;51.908;10.418;2023-08-24T00:47:16;9.55;;;6.28;;
39994;SDS011;25686;51.908;10.418;2023-08-24T00:49:17;11.13;;;6.20;;
39994;SDS011;25686;51.908;10.418;2023-08-24T00:51:18;9.65;;;6.20;;
39994;SDS011;25686;51.908;10.418;2023-08-24T00:53:19;9.77;;;6.70;;
39994;SDS011;25686;51.908;10.418;2023-08-24T00:55:21;8.15;;;6.72;;
39994;SDS011;25686;51.908;10.418;2023-08-24T00:57:22;8.00;;;6.70;;
39994;SDS011;25686;51.908;10.418;2023-08-24T00:59:23;7.10;;;6.40;;
39994;SDS011;25686;51.908;10.418;2023-08-24T01:01:24;7.03;;;5.95;;
39994;SDS011;25686;51.908;10.418;2023-08-24T01:03:25;7.05;;;6.35;;
39994;SDS011;25686;51.908;10.418;2023-08-24T01:05:26;7.25;;;6.10;;
39994;SDS011;25686;51.908;10.418;2023-08-24T01:07:27;9.88;;;6.63;;
39994;SDS011;25686;51.908;10.418;2023-08-24T01:09:28;6.70;;;6.07;;
39994;SDS011;25686;51.908;10.418;2023-08-24T01:11:32;9.43;;;6.40;;
39994;SDS011;25686;51.908;10.418;2023-08-24T01:15:51;8.05;;;6.78;;
39994;SDS011;25686;51.908;10.418;2023-08-24T01:17:57;9.82;;;6.45;;
39994;SDS011;25686;51.908;10.418;2023-08-24T01:19:59;9.57;;;6.78;;
39994;SDS011;25686;51.908;10.418;2023-08-24T01:22:01;7.15;;;6.45;;
39994;SDS011;25686;51.908;10.418;2023-08-24T01:24:04;8.15;;;6.90;;
39994;SDS011;25686;51.908;10.418;2023-08-24T01:26:14;7.18;;;6.53;;
39994;SDS011;25686;51.908;10.418;2023-08-24T01:28:17;6.97;;;6.32;;
39994;SDS011;25686;51.908;10.418;2023-08-24T01:30:19;8.43;;;7.25;;
39994;SDS011;25686;51.908;10.418;2023-08-24T01:32:20;8.20;;;6.72;;
39994;SDS011;25686;51.908;10.418;2023-08-24T01:34:21;7.20;;;6.50;;
39994;SDS011;25686;51.908;10.418;2023-08-24T01:36:22;7.70;;;6.90;;
39994;SDS011;25686;51.908;10.418;2023-08-24T01:38:24;8.98;;;6.90;;
39994;SDS011;25686;51.908;10.418;2023-08-24T01:42:48;10.07;;;6.70;;
39994;SDS011;25686;51.908;10.418;2023-08-24T01:44:52;8.90;;;7.00;;
39994;SDS011;25686;51.908;10.418;2023-08-24T01:46:55;11.07;;;7.30;;
39994;SDS011;25686;51.908;10.418;2023-08-24T01:48:57;10.13;;;7.00;;
39994;SDS011;25686;51.908;10.418;2023-08-24T01:50:58;7.57;;;6.90;;
39994;SDS011;25686;51.908;10.418;2023-08-24T01:53:00;10.10;;;7.10;;
39994;SDS011;25686;51.908;10.418;2023-08-24T01:55:01;7.50;;;6.70;;
39994;SDS011;25686;51.908;10.418;2023-08-24T01:57:05;7.55;;;6.85;;
39994;SDS011;25686;51.908;10.418;2023-08-24T01:59:07;11.43;;;7.35;;
39994;SDS011;25686;51.908;10.418;2023-08-24T02:01:08;8.60;;;7.70;;
39994;SDS011;25686;51.908;10.418;2023-08-24T02:03:10;8.05;;;7.00;;
39994;SDS011;25686;51.908;10.418;2023-08-24T02:05:11;13.50;;;7.80;;
39994;SDS011;25686;51.908;10.418;2023-08-24T02:07:12;7.80;;;7.10;;
39994;SDS011;25686;51.908;10.418;2023-08-24T02:09:13;8.05;;;7.25;;
39994;SDS011;25686;51.908;10.418;2023-08-24T02:11:14;8.90;;;7.75;;
39994;SDS011;25686;51.908;10.418;2023-08-24T02:13:15;9.27;;;7.18;;
39994;SDS011;25686;51.908;10.418;2023-08-24T02:15:16;8.40;;;7.53;;
39994;SDS011;25686;51.908;10.418;2023-08-24T02:17:17;11.25;;;7.30;;
39994;SDS011;25686;51.908;10.418;2023-08-24T02:19:18;8.68;;;7.78;;
39994;SDS011;25686;51.908;10.418;2023-08-24T02:21:19;7.85;;;7.15;;
39994;SDS011;25686;51.908;10.418;2023-08-24T02:23:20;9.18;;;7.35;;
39994;SDS011;25686;51.908;10.418;2023-08-24T02:25:21;11.40;;;7.80;;
39994;SDS011;25686;51.908;10.418;2023-08-24T02:27:22;10.38;;;7.53;;
39994;SDS011;25686;51.908;10.418;2023-08-24T02:29:23;9.93;;;7.82;;
39994;SDS011;25686;51.908;10.418;2023-08-24T02:31:24;11.88;;;7.60;;
39994;SDS011;25686;51.908;10.418;2023-08-24T02:33:25;9.02;;;7.13;;
39994;SDS011;25686;51.908;10.418;2023-08-24T02:35:27;10.18;;;7.38;;
39994;SDS011;25686;51.908;10.418;2023-08-24T02:37:28;8.45;;;7.47;;
39994;SDS011;25686;51.908;10.418;2023-08-24T02:39:28;10.27;;;7.63;;
39994;SDS011;25686;51.908;10.418;2023-08-24T02:41:29;12.43;;;7.68;;
39994;SDS011;25686;51.908;10.418;2023-08-24T02:43:31;9.68;;;7.32;;
39994;SDS011;25686;51.908;10.418;2023-08-24T02:45:32;7.72;;;7.00;;
39994;SDS011;25686;51.908;10.418;2023-08-24T02:47:33;9.07;;;8.00;;
39994;SDS011;25686;51.908;10.418;2023-08-24T02:49:34;9.23;;;6.88;;
39994;SDS011;25686;51.908;10.418;2023-08-24T02:51:35;8.77;;;6.75;;
39994;SDS011;25686;51.908;10.418;2023-08-24T02:53:36;9.18;;;7.20;;
39994;SDS011;25686;51.908;10.418;2023-08-24T02:55:37;10.27;;;6.63;;
39994;SDS011;25686;51.908;10.418;2023-08-24T02:57:38;11.35;;;7.28;;
39994;SDS011;25686;51.908;10.418;2023-08-24T02:59:39;8.18;;;7.10;;
39994;SDS011;25686;51.908;10.418;2023-08-24T03:01:43;9.32;;;7.35;;
39994;SDS011;25686;51.908;10.418;2023-08-24T03:03:44;11.38;;;7.10;;
39994;SDS011;25686;51.908;10.418;2023-08-24T03:06:00;8.38;;;7.15;;
39994;SDS011;25686;51.908;10.418;2023-08-24T03:08:02;11.82;;;6.78;;
39994;SDS011;25686;51.908;10.418;2023-08-24T03:10:04;9.57;;;6.68;;
39994;SDS011;25686;51.908;10.418;2023-08-24T03:12:05;9.82;;;7.47;;
39994;SDS011;25686;51.908;10.418;2023-08-24T03:14:06;7.07;;;6.38;;
39994;SDS011;25686;51.908;10.418;2023-08-24T03:16:08;8.93;;;7.13;;
39994;SDS011;25686;51.908;10.418;2023-08-24T03:18:12;10.27;;;7.00;;
39994;SDS011;25686;51.908;10.418;2023-08-24T03:20:13;9.82;;;6.70;;
39994;SDS011;25686;51.908;10.418;2023-08-24T03:22:14;8.45;;;6.60;;
39994;SDS011;25686;51.908;10.418;2023-08-24T03:24:15;7.93;;;7.13;;
39994;SDS011;25686;51.908;10.418;2023-08-24T03:26:16;8.60;;;7.10;;
39994;SDS011;25686;51.908;10.418;2023-08-24T03:28:20;8.80;;;7.22;;
39994;SDS011;25686;51.908;10.418;2023-08-24T03:30:21;10.43;;;7.60;;
39994;SDS011;25686;51.908;10.418;2023-08-24T03:32:22;10.00;;;6.88;;
39994;SDS011;25686;51.908;10.418;2023-08-24T03:34:23;8.25;;;7.13;;
39994;SDS011;25686;51.908;10.418;2023-08-24T03:36:24;9.50;;;6.97;;
39994;SDS011;25686;51.908;10.418;2023-08-24T03:38:25;9.73;;;6.88;;
39994;SDS011;25686;51.908;10.418;2023-08-24T03:40:26;9.65;;;7.20;;
39994;SDS011;25686;51.908;10.418;2023-08-24T03:42:27;11.02;;;6.93;;
39994;SDS011;25686;51.908;10.418;2023-08-24T03:44:28;8.50;;;6.65;;
39994;SDS011;25686;51.908;10.418;2023-08-24T03:46:29;8.48;;;7.00;;
39994;SDS011;25686;51.908;10.418;2023-08-24T03:48:31;7.30;;;6.57;;
39994;SDS011;25686;51.908;10.418;2023-08-24T03:50:32;8.40;;;6.55;;
39994;SDS011;25686;51.908;10.418;2023-08-24T03:52:33;9.05;;;6.70;;
39994;SDS011;25686;51.908;10.418;2023-08-24T03:54:33;7.28;;;6.53;;
39994;SDS011;25686;51.908;10.418;2023-08-24T03:56:34;10.63;;;6.65;;
39994;SDS011;25686;51.908;10.418;2023-08-24T03:58:35;7.97;;;6.90;;
39994;SDS011;25686;51.908;10.418;2023-08-24T04:00:37;7.80;;;6.45;;
39994;SDS011;25686;51.908;10.418;2023-08-24T04:02:40;8.40;;;6.18;;
39994;SDS011;25686;51.908;10.418;2023-08-24T04:04:41;9.05;;;6.97;;
39994;SDS011;25686;51.908;10.418;2023-08-24T04:06:42;7.90;;;7.10;;
39994;SDS011;25686;51.908;10.418;2023-08-24T04:08:43;7.97;;;6.25;;
39994;SDS011;25686;51.908;10.418;2023-08-24T04:10:44;7.88;;;6.70;;
39994;SDS011;25686;51.908;10.418;2023-08-24T04:12:45;9.40;;;7.18;;
39994;SDS011;25686;51.908;10.418;2023-08-24T04:14:46;10.05;;;6.40;;
39994;SDS011;25686;51.908;10.418;2023-08-24T04:16:47;11.32;;;7.32;;
39994;SDS011;25686;51.908;10.418;2023-08-24T04:18:48;7.80;;;6.63;;
39994;SDS011;25686;51.908;10.418;2023-08-24T04:20:51;9.52;;;6.57;;
39994;SDS011;25686;51.908;10.418;2023-08-24T04:22:52;9.85;;;6.72;;
39994;SDS011;25686;51.908;10.418;2023-08-24T04:24:53;8.07;;;6.55;;
39994;SDS011;25686;51.908;10.418;2023-08-24T04:26:54;10.38;;;6.97;;
39994;SDS011;25686;51.908;10.418;2023-08-24T04:28:56;9.70;;;6.95;;
39994;SDS011;25686;51.908;10.418;2023-08-24T04:30:57;7.30;;;6.32;;
39994;SDS011;25686;51.908;10.418;2023-08-24T04:32:58;7.53;;;6.80;;
39994;SDS011;25686;51.908;10.418;2023-08-24T04:34:59;9.82;;;6.65;;
39994;SDS011;25686;51.908;10.418;2023-08-24T04:37:00;8.70;;;6.68;;
39994;SDS011;25686;51.908;10.418;2023-08-24T04:39:02;10.15;;;7.00;;
39994;SDS011;25686;51.908;10.418;2023-08-24T04:41:06;9.02;;;6.68;;
39994;SDS011;25686;51.908;10.418;2023-08-24T04:43:07;11.10;;;6.85;;
39994;SDS011;25686;51.908;10.418;2023-08-24T04:45:09;12.02;;;7.30;;
39994;SDS011;25686;51.908;10.418;2023-08-24T04:47:10;10.20;;;6.70;;
39994;SDS011;25686;51.908;10.418;2023-08-24T04:49:11;8.15;;;6.68;;
39994;SDS011;25686;51.908;10.418;2023-08-24T04:51:12;14.25;;;7.13;;
39994;SDS011;25686;51.908;10.418;2023-08-24T04:53:13;11.32;;;6.95;;
39994;SDS011;25686;51.908;10.418;2023-08-24T04:55:15;8.07;;;6.80;;
39994;SDS011;25686;51.908;10.418;2023-08-24T04:57:16;7.85;;;7.00;;
39994;SDS011;25686;51.908;10.418;2023-08-24T04:59:18;9.52;;;6.60;;
39994;SDS011;25686;51.908;10.418;2023-08-24T05:01:19;10.80;;;6.95;;
39994;SDS011;25686;51.908;10.418;2023-08-24T05:03:20;10.55;;;7.10;;
39994;SDS011;25686;51.908;10.418;2023-08-24T05:05:21;10.07;;;6.32;;
39994;SDS011;25686;51.908;10.418;2023-08-24T05:07:22;9.45;;;6.90;;
39994;SDS011;25686;51.908;10.418;2023-08-24T05:09:23;8.43;;;6.53;;
39994;SDS011;25686;51.908;10.418;2023-08-24T05:11:26;9.50;;;6.93;;
39994;SDS011;25686;51.908;10.418;2023-08-24T05:13:29;8.90;;;6.20;;
39994;SDS011;25686;51.908;10.418;2023-08-24T05:15:30;9.40;;;6.57;;
39994;SDS011;25686;51.908;10.418;2023-08-24T05:17:31;7.20;;;6.50;;
39994;SDS011;25686;51.908;10.418;2023-08-24T05:19:32;11.63;;;7.07;;
39994;SDS011;25686;51.908;10.418;2023-08-24T05:21:33;9.52;;;6.80;;
39994;SDS011;25686;51.908;10.418;2023-08-24T05:23:34;11.48;;;6.32;;
39994;SDS011;25686;51.908;10.418;2023-08-24T05:25:35;10.80;;;6.82;;
39994;SDS011;25686;51.908;10.418;2023-08-24T05:27:36;8.48;;;6.40;;
39994;SDS011;25686;51.908;10.418;2023-08-24T05:29:37;9.50;;;6.15;;
39994;SDS011;25686;51.908;10.418;2023-08-24T05:31:38;8.52;;;5.97;;
39994;SDS011;25686;51.908;10.418;2023-08-24T05:33:39;7.88;;;6.38;;
39994;SDS011;25686;51.908;10.418;2023-08-24T05:35:40;7.07;;;6.28;;
39994;SDS011;25686;51.908;10.418;2023-08-24T05:37:41;8.50;;;6.00;;
39994;SDS011;25686;51.908;10.418;2023-08-24T05:39:42;7.47;;;5.97;;
39994;SDS011;25686;51.908;10.418;2023-08-24T05:41:43;7.05;;;5.70;;
39994;SDS011;25686;51.908;10.418;2023-08-24T05:43:44;7.25;;;5.55;;
39994;SDS011;25686;51.908;10.418;2023-08-24T05:45:45;10.65;;;6.10;;
39994;SDS011;25686;51.908;10.418;2023-08-24T05:47:47;8.43;;;5.50;;
39994;SDS011;25686;51.908;10.418;2023-08-24T05:49:47;7.43;;;5.30;;
39994;SDS011;25686;51.908;10.418;2023-08-24T05:51:51;6.78;;;5.20;;
39994;SDS011;25686;51.908;10.418;2023-08-24T05:53:53;9.50;;;5.60;;
39994;SDS011;25686;51.908;10.418;2023-08-24T05:55:58;8.52;;;4.88;;
39994;SDS011;25686;51.908;10.418;2023-08-24T05:57:59;9.25;;;5.43;;
39994;SDS011;25686;51.908;10.418;2023-08-24T06:00:00;5.75;;;5.22;;
39994;SDS011;25686;51.908;10.418;2023-08-24T06:02:01;5.35;;;4.70;;
39994;SDS011;25686;51.908;10.418;2023-08-24T06:04:02;8.27;;;5.10;;
39994;SDS011;25686;51.908;10.418;2023-08-24T06:06:03;6.50;;;5.10;;
39994;SDS011;25686;51.908;10.418;2023-08-24T06:08:05;9.45;;;4.53;;
39994;SDS011;25686;51.908;10.418;2023-08-24T06:10:06;6.65;;;4.88;;
39994;SDS011;25686;51.908;10.418;2023-08-24T06:12:07;10.85;;;5.07;;
39994;SDS011;25686;51.908;10.418;2023-08-24T06:14:08;9.70;;;5.13;;
39994;SDS011;25686;51.908;10.418;2023-08-24T06:16:09;6.57;;;4.63;;
39994;SDS011;25686;51.908;10.418;2023-08-24T06:18:10;6.20;;;4.80;;
39994;SDS011;25686;51.908;10.418;2023-08-24T06:20:11;8.75;;;5.00;;
39994;SDS011;25686;51.908;10.418;2023-08-24T06:22:12;9.20;;;5.10;;
39994;SDS011;25686;51.908;10.418;2023-08-24T06:24:13;13.30;;;5.03;;
39994;SDS011;25686;51.908;10.418;2023-08-24T06:26:14;9.10;;;5.10;;
39994;SDS011;25686;51.908;10.418;2023-08-24T06:28:15;7.00;;;4.38;;
39994;SDS011;25686;51.908;10.418;2023-08-24T06:30:16;8.45;;;5.10;;
39994;SDS011;25686;51.908;10.418;2023-08-24T06:32:17;9.25;;;4.90;;
39994;SDS011;25686;51.908;10.418;2023-08-24T06:34:18;11.98;;;5.55;;
39994;SDS011;25686;51.908;10.418;2023-08-24T06:36:19;11.50;;;5.10;;
39994;SDS011;25686;51.908;10.418;2023-08-24T06:38:20;8.15;;;5.38;;
39994;SDS011;25686;51.908;10.418;2023-08-24T06:40:21;7.40;;;5.60;;
39994;SDS011;25686;51.908;10.418;2023-08-24T06:42:23;8.57;;;5.25;;
39994;SDS011;25686;51.908;10.418;2023-08-24T06:44:24;9.85;;;5.03;;
39994;SDS011;25686;51.908;10.418;2023-08-24T06:46:25;15.20;;;5.28;;
39994;SDS011;25686;51.908;10.418;2023-08-24T06:48:26;7.70;;;5.32;;
39994;SDS011;25686;51.908;10.418;2023-08-24T06:50:27;8.63;;;5.25;;
39994;SDS011;25686;51.908;10.418;2023-08-24T06:52:28;6.50;;;5.43;;
39994;SDS011;25686;51.908;10.418;2023-08-24T06:54:28;8.80;;;5.05;;
39994;SDS011;25686;51.908;10.418;2023-08-24T06:56:29;6.85;;;5.57;;
39994;SDS011;25686;51.908;10.418;2023-08-24T06:58:30;8.30;;;6.20;;
39994;SDS011;25686;51.908;10.418;2023-08-24T07:00:32;16.00;;;6.13;;
39994;SDS011;25686;51.908;10.418;2023-08-24T07:02:33;6.95;;;5.65;;
39994;SDS011;25686;51.908;10.418;2023-08-24T07:04:34;6.75;;;5.95;;
39994;SDS011;25686;51.908;10.418;2023-08-24T07:06:37;8.68;;;5.72;;
39994;SDS011;25686;51.908;10.418;2023-08-24T07:08:38;8.48;;;5.97;;
39994;SDS011;25686;51.908;10.418;2023-08-24T07:10:39;11.43;;;6.15;;
39994;SDS011;25686;51.908;10.418;2023-08-24T07:12:40;10.80;;;5.80;;
39994;SDS011;25686;51.908;10.418;2023-08-24T07:14:41;7.65;;;5.95;;
39994;SDS011;25686;51.908;10.418;2023-08-24T07:16:42;10.98;;;6.68;;
39994;SDS011;25686;51.908;10.418;2023-08-24T07:18:43;10.75;;;6.10;;
39994;SDS011;25686;51.908;10.418;2023-08-24T07:20:44;8.77;;;6.50;;
39994;SDS011;25686;51.908;10.418;2023-08-24T07:22:45;10.10;;;6.43;;
39994;SDS011;25686;51.908;10.418;2023-08-24T07:24:46;8.43;;;6.22;;
39994;SDS011;25686;51.908;10.418;2023-08-24T07:26:54;9.48;;;6.10;;
39994;SDS011;25686;51.908;10.418;2023-08-24T07:28:55;8.18;;;5.65;;
39994;SDS011;25686;51.908;10.418;2023-08-24T07:30:57;8.60;;;5.55;;
39994;SDS011;25686;51.908;10.418;2023-08-24T07:32:58;8.32;;;5.38;;
39994;SDS011;25686;51.908;10.418;2023-08-24T07:34:59;8.35;;;6.25;;
39994;SDS011;25686;51.908;10.418;2023-08-24T07:37:00;8.82;;;6.35;;
39994;SDS011;25686;51.908;10.418;2023-08-24T07:39:01;9.50;;;6.38;;
39994;SDS011;25686;51.908;10.418;2023-08-24T07:41:02;7.13;;;6.28;;
39994;SDS011;25686;51.908;10.418;2023-08-24T07:43:03;6.93;;;6.03;;
39994;SDS011;25686;51.908;10.418;2023-08-24T07:45:04;7.22;;;5.72;;
39994;SDS011;25686;51.908;10.418;2023-08-24T07:47:05;8.52;;;6.45;;
39994;SDS011;25686;51.908;10.418;2023-08-24T07:49:06;9.38;;;6.07;;
39994;SDS011;25686;51.908;10.418;2023-08-24T07:51:07;12.95;;;5.35;;
39994;SDS011;25686;51.908;10.418;2023-08-24T07:53:08;6.38;;;5.40;;
39994;SDS011;25686;51.908;10.418;2023-08-24T07:55:09;10.15;;;4.90;;
39994;SDS011;25686;51.908;10.418;2023-08-24T07:57:11;8.20;;;4.85;;
39994;SDS011;25686;51.908;10.418;2023-08-24T07:59:12;10.32;;;4.88;;
39994;SDS011;25686;51.908;10.418;2023-08-24T08:01:13;7.55;;;4.40;;
39994;SDS011;25686;51.908;10.418;2023-08-24T08:03:14;6.78;;;4.80;;
39994;SDS011;25686;51.908;10.418;2023-08-24T08:05:15;7.82;;;4.65;;
39994;SDS011;25686;51.908;10.418;2023-08-24T08:07:16;6.63;;;4.82;;
39994;SDS011;25686;51.908;10.418;2023-08-24T08:09:17;6.90;;;5.47;;
39994;SDS011;25686;51.908;10.418;2023-08-24T08:11:18;10.90;;;5.95;;
39994;SDS011;25686;51.908;10.418;2023-08-24T08:13:19;8.07;;;5.75;;
39994;SDS011;25686;51.908;10.418;2023-08-24T08:15:20;11.65;;;5.80;;
39994;SDS011;25686;51.908;10.418;2023-08-24T08:17:21;9.25;;;5.57;;
39994;SDS011;25686;51.908;10.418;2023-08-24T08:19:23;12.73;;;5.05;;
39994;SDS011;25686;51.908;10.418;2023-08-24T08:21:28;11.13;;;5.50;;
39994;SDS011;25686;51.908;10.418;2023-08-24T08:23:30;7.85;;;5.22;;
39994;SDS011;25686;51.908;10.418;2023-08-24T08:25:31;8.57;;;4.97;;
39994;SDS011;25686;51.908;10.418;2023-08-24T08:27:32;11.55;;;5.38;;
39994;SDS011;25686;51.908;10.418;2023-08-24T08:29:33;11.27;;;5.53;;
39994;SDS011;25686;51.908;10.418;2023-08-24T08:31:34;8.82;;;5.65;;
39994;SDS011;25686;51.908;10.418;2023-08-24T08:33:35;7.20;;;5.20;;
39994;SDS011;25686;51.908;10.418;2023-08-24T08:35:37;14.82;;;5.50;;
39994;SDS011;25686;51.908;10.418;2023-08-24T08:37:38;10.82;;;5.38;;
39994;SDS011;25686;51.908;10.418;2023-08-24T08:39:39;8.90;;;5.00;;
39994;SDS011;25686;51.908;10.418;2023-08-24T08:41:42;12.48;;;5.82;;
39994;SDS011;25686;51.908;10.418;2023-08-24T08:43:46;10.98;;;5.80;;
39994;SDS011;25686;51.908;10.418;2023-08-24T08:45:50;10.27;;;5.80;;
39994;SDS011;25686;51.908;10.418;2023-08-24T08:47:53;13.57;;;5.40;;
39994;SDS011;25686;51.908;10.418;2023-08-24T08:49:56;9.48;;;4.80;;
39994;SDS011;25686;51.908;10.418;2023-08-24T08:51:57;12.70;;;5.20;;
39994;SDS011;25686;51.908;10.418;2023-08-24T08:53:58;11.63;;;4.65;;
39994;SDS011;25686;51.908;10.418;2023-08-24T08:56:00;8.80;;;5.03;;
39994;SDS011;25686;51.908;10.418;2023-08-24T08:58:03;7.68;;;4.32;;
39994;SDS011;25686;51.908;10.418;2023-08-24T09:00:04;12.73;;;4.65;;
39994;SDS011;25686;51.908;10.418;2023-08-24T09:02:06;7.68;;;4.53;;
39994;SDS011;25686;51.908;10.418;2023-08-24T09:04:11;10.30;;;4.65;;
39994;SDS011;25686;51.908;10.418;2023-08-24T09:06:12;5.85;;;4.45;;
39994;SDS011;25686;51.908;10.418;2023-08-24T09:08:13;10.63;;;4.68;;
39994;SDS011;25686;51.908;10.418;2023-08-24T09:10:14;8.60;;;4.30;;
39994;SDS011;25686;51.908;10.418;2023-08-24T09:12:15;6.50;;;3.90;;
39994;SDS011;25686;51.908;10.418;2023-08-24T09:14:16;7.78;;;4.22;;
39994;SDS011;25686;51.908;10.418;2023-08-24T09:16:17;7.72;;;3.70;;
39994;SDS011;25686;51.908;10.418;2023-08-24T09:18:18;8.05;;;3.70;;
39994;SDS011;25686;51.908;10.418;2023-08-24T09:20:20;7.28;;;3.97;;
39994;SDS011;25686;51.908;10.418;2023-08-24T09:22:21;8.05;;;3.85;;
39994;SDS011;25686;51.908;10.418;2023-08-24T09:24:28;10.25;;;3.80;;
39994;SDS011;25686;51.908;10.418;2023-08-24T09:26:33;7.13;;;4.20;;
39994;SDS011;25686;51.908;10.418;2023-08-24T09:28:35;10.85;;;3.92;;
39994;SDS011;25686;51.908;10.418;2023-08-24T09:30:36;10.80;;;3.85;;
39994;SDS011;25686;51.908;10.418;2023-08-24T09:32:38;8.07;;;3.90;;
39994;SDS011;25686;51.908;10.418;2023-08-24T09:34:39;6.40;;;3.72;;
39994;SDS011;25686;51.908;10.418;2023-08-24T09:36:40;7.30;;;3.50;;
39994;SDS011;25686;51.908;10.418;2023-08-24T09:38:47;10.85;;;3.95;;
39994;SDS011;25686;51.908;10.418;2023-08-24T09:40:52;9.38;;;3.80;;
39994;SDS011;25686;51.908;10.418;2023-08-24T09:42:53;7.85;;;4.20;;
39994;SDS011;25686;51.908;10.418;2023-08-24T09:44:54;6.75;;;3.45;;
39994;SDS011;25686;51.908;10.418;2023-08-24T09:46:55;8.48;;;3.80;;
39994;SDS011;25686;51.908;10.418;2023-08-24T09:48:56;10.18;;;3.65;;
39994;SDS011;25686;51.908;10.418;2023-08-24T09:51:01;8.13;;;3.63;;
39994;SDS011;25686;51.908;10.418;2023-08-24T09:53:04;5.60;;;3.55;;
39994;SDS011;25686;51.908;10.418;2023-08-24T09:55:05;5.57;;;3.47;;
39994;SDS011;25686;51.908;10.418;2023-08-24T09:57:07;7.03;;;3.65;;
39994;SDS011;25686;51.908;10.418;2023-08-24T09:59:12;9.80;;;3.53;;
39994;SDS011;25686;51.908;10.418;2023-08-24T10:01:14;6.00;;;3.38;;
39994;SDS011;25686;51.908;10.418;2023-08-24T10:03:18;9.10;;;3.70;;
39994;SDS011;25686;51.908;10.418;2023-08-24T10:05:20;9.77;;;4.20;;
39994;SDS011;25686;51.908;10.418;2023-08-24T10:07:23;7.30;;;3.72;;
39994;SDS011;25686;51.908;10.418;2023-08-24T10:09:27;7.72;;;3.92;;
39994;SDS011;25686;51.908;10.418;2023-08-24T10:11:32;11.50;;;3.83;;
39994;SDS011;25686;51.908;10.418;2023-08-24T10:13:39;7.50;;;4.10;;
39994;SDS011;25686;51.908;10.418;2023-08-24T10:15:41;5.28;;;3.47;;
39994;SDS011;25686;51.908;10.418;2023-08-24T10:17:46;10.00;;;4.07;;
39994;SDS011;25686;51.908;10.418;2023-08-24T10:19:48;15.15;;;4.15;;
39994;SDS011;25686;51.908;10.418;2023-08-24T10:21:52;10.82;;;4.07;;
39994;SDS011;25686;51.908;10.418;2023-08-24T10:23:57;7.53;;;3.78;;
39994;SDS011;25686;51.908;10.418;2023-08-24T10:25:58;11.20;;;3.85;;
39994;SDS011;25686;51.908;10.418;2023-08-24T10:28:00;7.40;;;3.78;;
39994;SDS011;25686;51.908;10.418;2023-08-24T10:30:02;6.95;;;3.65;;
39994;SDS011;25686;51.908;10.418;2023-08-24T10:32:03;11.20;;;4.15;;
39994;SDS011;25686;51.908;10.418;2023-08-24T10:34:05;11.70;;;3.55;;
39994;SDS011;25686;51.908;10.418;2023-08-24T10:36:07;10.20;;;3.65;;
39994;SDS011;25686;51.908;10.418;2023-08-24T10:38:08;9.90;;;3.63;;
39994;SDS011;25686;51.908;10.418;2023-08-24T10:40:10;13.23;;;3.80;;
39994;SDS011;25686;51.908;10.418;2023-08-24T10:42:11;11.20;;;3.63;;
39994;SDS011;25686;51.908;10.418;2023-08-24T10:44:19;9.93;;;4.30;;
39994;SDS011;25686;51.908;10.418;2023-08-24T10:46:21;4.43;;;3.83;;
39994;SDS011;25686;51.908;10.418;2023-08-24T10:48:25;9.57;;;3.95;;
39994;SDS011;25686;51.908;10.418;2023-08-24T10:50:28;8.55;;;3.38;;
39994;SDS011;25686;51.908;10.418;2023-08-24T10:52:37;12.07;;;3.95;;
39994;SDS011;25686;51.908;10.418;2023-08-24T10:54:48;23.63;;;18.20;;
39994;SDS011;25686;51.908;10.418;2023-08-24T10:56:52;6.97;;;4.05;;
39994;SDS011;25686;51.908;10.418;2023-08-24T10:59:11;9.88;;;4.10;;
39994;SDS011;25686;51.908;10.418;2023-08-24T11:01:16;15.75;;;4.15;;
39994;SDS011;25686;51.908;10.418;2023-08-24T11:03:30;13.35;;;3.92;;
39994;SDS011;25686;51.908;10.418;2023-08-24T11:05:31;11.93;;;4.07;;
39994;SDS011;25686;51.908;10.418;2023-08-24T11:07:33;10.57;;;3.50;;
39994;SDS011;25686;51.908;10.418;2023-08-24T11:09:46;8.80;;;3.35;;
39994;SDS011;25686;51.908;10.418;2023-08-24T11:12:00;9.85;;;4.00;;
39994;SDS011;25686;51.908;10.418;2023-08-24T11:16:40;6.68;;;3.85;;
39994;SDS011;25686;51.908;10.418;2023-08-24T11:18:41;11.15;;;4.25;;
39994;SDS011;25686;51.908;10.418;2023-08-24T11:20:43;6.97;;;3.42;;
39994;SDS011;25686;51.908;10.418;2023-08-24T11:22:45;5.88;;;3.92;;
39994;SDS011;25686;51.908;10.418;2023-08-24T11:24:48;9.57;;;3.85;;
39994;SDS011;25686;51.908;10.418;2023-08-24T11:26:49;9.63;;;4.35;;
39994;SDS011;25686;51.908;10.418;2023-08-24T11:28:55;8.80;;;4.70;;
39994;SDS011;25686;51.908;10.418;2023-08-24T11:30:58;6.50;;;4.97;;
39994;SDS011;25686;51.908;10.418;2023-08-24T11:33:00;11.88;;;3.85;;
39994;SDS011;25686;51.908;10.418;2023-08-24T11:35:01;7.32;;;3.63;;
39994;SDS011;25686;51.908;10.418;2023-08-24T11:37:03;8.20;;;3.80;;
39994;SDS011;25686;51.908;10.418;2023-08-24T11:39:04;8.05;;;3.53;;
39994;SDS011;25686;51.908;10.418;2023-08-24T11:41:15;10.32;;;4.00;;
39994;SDS011;25686;51.908;10.418;2023-08-24T11:43:25;6.82;;;3.47;;
39994;SDS011;25686;51.908;10.418;2023-08-24T11:45:33;9.50;;;3.70;;
39994;SDS011;25686;51.908;10.418;2023-08-24T11:47:36;5.38;;;3.28;;
39994;SDS011;25686;51.908;10.418;2023-08-24T11:49:37;6.38;;;3.20;;
39994;SDS011;25686;51.908;10.418;2023-08-24T11:51:38;10.10;;;3.65;;
39994;SDS011;25686;51.908;10.418;2023-08-24T11:53:39;10.77;;;3.70;;
39994;SDS011;25686;51.908;10.418;2023-08-24T11:55:40;6.18;;;3.30;;
39994;SDS011;25686;51.908;10.418;2023-08-24T11:57:41;5.78;;;3.70;;
39994;SDS011;25686;51.908;10.418;2023-08-24T11:59:43;7.53;;;3.55;;
39994;SDS011;25686;51.908;10.418;2023-08-24T12:01:44;7.53;;;3.45;;
39994;SDS011;25686;51.908;10.418;2023-08-24T12:03:46;7.38;;;3.83;;
39994;SDS011;25686;51.908;10.418;2023-08-24T12:05:47;8.05;;;3.50;;
39994;SDS011;25686;51.908;10.418;2023-08-24T12:07:48;6.30;;;3.47;;